Leuchars, United Kingdom
Current Conditions -  °F | °C
As of 3:50 PM on Thursday 29 Jan 2015 (Local Time) from EGQL Reporting Station
Scattered Clouds Scattered Clouds  
Wind Chill: 31°   Ceiling: Unl
Heat Index: 37°   Visibility: 6mi
Dew Point: 28°   Wind: 9mph
Humidity: 70%   Direction: 290°WNW
Pressure: 28.7"   Gusts: NA
Location:  56.38°N, 2.89°W
Report Text: EGQL 291550Z 29008KT 9999 FEW020 SCT040 03/M02 Q0972 BLU
Loading
Personal Weather Stations






























Interactive Weather Map New forecast layout! Learn more

10-Day Weather Forecast

Advertisements
Track Severe Weather on mobile